sensor_id;sensor_type;location;lat;lon;timestamp;pressure;altitude;pressure_sealevel;temperature;humidity
13027;BME280;6580;42.680;23.324;2022-09-03T00:02:19;95195.53;;;19.51;100.00
13027;BME280;6580;42.680;23.324;2022-09-03T00:04:54;95203.03;;;19.42;100.00
13027;BME280;6580;42.680;23.324;2022-09-03T00:07:29;95204.53;;;19.26;100.00
13027;BME280;6580;42.680;23.324;2022-09-03T00:10:04;95204.53;;;19.32;100.00
13027;BME280;6580;42.680;23.324;2022-09-03T00:12:36;95208.06;;;19.26;100.00
13027;BME280;6580;42.680;23.324;2022-09-03T00:15:07;95205.16;;;19.28;100.00
13027;BME280;6580;42.680;23.324;2022-09-03T00:17:37;95205.34;;;19.33;100.00
13027;BME280;6580;42.680;23.324;2022-09-03T00:20:09;95201.81;;;19.39;100.00
13027;BME280;6580;42.680;23.324;2022-09-03T00:22:39;95192.84;;;19.51;100.00
13027;BME280;6580;42.680;23.324;2022-09-03T00:25:12;95203.63;;;19.51;100.00
13027;BME280;6580;42.680;23.324;2022-09-03T00:27:41;95199.03;;;19.58;100.00
13027;BME280;6580;42.680;23.324;2022-09-03T00:30:12;95202.31;;;19.66;100.00
13027;BME280;6580;42.680;23.324;2022-09-03T00:32:41;95196.00;;;19.35;100.00
13027;BME280;6580;42.680;23.324;2022-09-03T00:35:16;95191.84;;;19.33;100.00
13027;BME280;6580;42.680;23.324;2022-09-03T00:37:45;95185.22;;;19.09;100.00
13027;BME280;6580;42.680;23.324;2022-09-03T00:40:27;95187.91;;;19.22;100.00
13027;BME280;6580;42.680;23.324;2022-09-03T00:43:03;95188.34;;;19.13;100.00
13027;BME280;6580;42.680;23.324;2022-09-03T00:45:38;95180.06;;;18.69;100.00
13027;BME280;6580;42.680;23.324;2022-09-03T00:48:18;95187.34;;;18.81;100.00
13027;BME280;6580;42.680;23.324;2022-09-03T00:51:02;95191.06;;;18.93;100.00
13027;BME280;6580;42.680;23.324;2022-09-03T00:53:37;95197.28;;;19.00;100.00
13027;BME280;6580;42.680;23.324;2022-09-03T00:56:14;95198.50;;;18.98;100.00
13027;BME280;6580;42.680;23.324;2022-09-03T00:59:07;95196.03;;;19.16;100.00
13027;BME280;6580;42.680;23.324;2022-09-03T01:01:46;95190.84;;;19.14;100.00
13027;BME280;6580;42.680;23.324;2022-09-03T01:04:27;95186.88;;;19.17;100.00
13027;BME280;6580;42.680;23.324;2022-09-03T01:07:06;95193.31;;;19.29;100.00
13027;BME280;6580;42.680;23.324;2022-09-03T01:09:46;95191.47;;;19.16;100.00
13027;BME280;6580;42.680;23.324;2022-09-03T01:12:26;95187.31;;;19.01;100.00
13027;BME280;6580;42.680;23.324;2022-09-03T01:15:02;95198.31;;;19.06;100.00
13027;BME280;6580;42.680;23.324;2022-09-03T01:17:44;95188.97;;;19.15;100.00
13027;BME280;6580;42.680;23.324;2022-09-03T01:20:25;95199.72;;;19.41;100.00
13027;BME280;6580;42.680;23.324;2022-09-03T01:25:59;95196.22;;;19.08;100.00
13027;BME280;6580;42.680;23.324;2022-09-03T01:28:48;95206.00;;;18.83;100.00
13027;BME280;6580;42.680;23.324;2022-09-03T01:31:28;95213.50;;;18.55;100.00
13027;BME280;6580;42.680;23.324;2022-09-03T01:34:12;95219.69;;;18.49;100.00
13027;BME280;6580;42.680;23.324;2022-09-03T01:36:49;95228.00;;;18.60;100.00
13027;BME280;6580;42.680;23.324;2022-09-03T01:39:22;95224.69;;;18.65;100.00
13027;BME280;6580;42.680;23.324;2022-09-03T01:41:58;95228.81;;;18.67;100.00
13027;BME280;6580;42.680;23.324;2022-09-03T01:45:09;95225.94;;;18.82;100.00
13027;BME280;6580;42.680;23.324;2022-09-03T01:47:51;95220.53;;;18.82;100.00
13027;BME280;6580;42.680;23.324;2022-09-03T01:50:31;95208.91;;;19.01;100.00
13027;BME280;6580;42.680;23.324;2022-09-03T01:53:09;95208.09;;;18.68;100.00
13027;BME280;6580;42.680;23.324;2022-09-03T01:55:45;95202.47;;;18.69;100.00
13027;BME280;6580;42.680;23.324;2022-09-03T01:58:26;95211.00;;;18.86;100.00
13027;BME280;6580;42.680;23.324;2022-09-03T02:01:02;95214.13;;;18.70;100.00
13027;BME280;6580;42.680;23.324;2022-09-03T02:03:37;95211.00;;;18.79;100.00
13027;BME280;6580;42.680;23.324;2022-09-03T02:06:05;95206.66;;;18.72;100.00
13027;BME280;6580;42.680;23.324;2022-09-03T02:08:33;95202.25;;;18.90;100.00
13027;BME280;6580;42.680;23.324;2022-09-03T02:11:00;95209.72;;;19.08;100.00
13027;BME280;6580;42.680;23.324;2022-09-03T02:13:29;95211.00;;;19.18;100.00
13027;BME280;6580;42.680;23.324;2022-09-03T02:16:03;95218.88;;;18.74;100.00
13027;BME280;6580;42.680;23.324;2022-09-03T02:18:37;95225.94;;;18.82;100.00
13027;BME280;6580;42.680;23.324;2022-09-03T02:21:07;95223.88;;;18.71;100.00
13027;BME280;6580;42.680;23.324;2022-09-03T02:23:38;95221.78;;;18.66;100.00
13027;BME280;6580;42.680;23.324;2022-09-03T02:26:05;95225.31;;;18.67;100.00
13027;BME280;6580;42.680;23.324;2022-09-03T02:28:34;95221.16;;;18.97;100.00
13027;BME280;6580;42.680;23.324;2022-09-03T02:31:02;95224.25;;;18.94;100.00
13027;BME280;6580;42.680;23.324;2022-09-03T02:33:30;95221.78;;;18.86;100.00
13027;BME280;6580;42.680;23.324;2022-09-03T02:35:57;95219.50;;;18.83;100.00
13027;BME280;6580;42.680;23.324;2022-09-03T02:38:26;95230.50;;;18.94;100.00
13027;BME280;6580;42.680;23.324;2022-09-03T02:40:53;95236.53;;;19.03;100.00
13027;BME280;6580;42.680;23.324;2022-09-03T02:43:28;95223.84;;;18.90;100.00
13027;BME280;6580;42.680;23.324;2022-09-03T02:46:02;95231.75;;;18.79;100.00
13027;BME280;6580;42.680;23.324;2022-09-03T02:48:30;95232.97;;;18.96;100.00
13027;BME280;6580;42.680;23.324;2022-09-03T02:50:57;95243.56;;;18.84;100.00
13027;BME280;6580;42.680;23.324;2022-09-03T02:53:24;95247.09;;;18.91;100.00
13027;BME280;6580;42.680;23.324;2022-09-03T02:55:56;95247.34;;;18.90;100.00
13027;BME280;6580;42.680;23.324;2022-09-03T02:58:24;95235.28;;;18.73;100.00
13027;BME280;6580;42.680;23.324;2022-09-03T03:00:50;95251.66;;;18.58;100.00
13027;BME280;6580;42.680;23.324;2022-09-03T03:03:26;95245.19;;;18.40;100.00
13027;BME280;6580;42.680;23.324;2022-09-03T03:05:54;95237.53;;;18.37;100.00
13027;BME280;6580;42.680;23.324;2022-09-03T03:08:25;95229.63;;;18.29;100.00
13027;BME280;6580;42.680;23.324;2022-09-03T03:10:54;95247.88;;;18.40;100.00
13027;BME280;6580;42.680;23.324;2022-09-03T03:13:23;95238.53;;;18.23;100.00
13027;BME280;6580;42.680;23.324;2022-09-03T03:15:50;95241.09;;;17.91;100.00
13027;BME280;6580;42.680;23.324;2022-09-03T03:18:17;95238.59;;;17.89;100.00
13027;BME280;6580;42.680;23.324;2022-09-03T03:20:46;95235.97;;;18.09;100.00
13027;BME280;6580;42.680;23.324;2022-09-03T03:23:15;95226.03;;;18.16;100.00
13027;BME280;6580;42.680;23.324;2022-09-03T03:25:42;95221.75;;;18.28;100.00
13027;BME280;6580;42.680;23.324;2022-09-03T03:28:09;95227.34;;;18.33;100.00
13027;BME280;6580;42.680;23.324;2022-09-03T03:30:37;95235.25;;;18.47;100.00
13027;BME280;6580;42.680;23.324;2022-09-03T03:33:04;95226.94;;;18.42;100.00
13027;BME280;6580;42.680;23.324;2022-09-03T03:35:31;95235.47;;;18.58;100.00
13027;BME280;6580;42.680;23.324;2022-09-03T03:38:00;95235.47;;;18.71;100.00
13027;BME280;6580;42.680;23.324;2022-09-03T03:40:27;95239.22;;;18.64;100.00
13027;BME280;6580;42.680;23.324;2022-09-03T03:42:56;95236.72;;;18.56;100.00
13027;BME280;6580;42.680;23.324;2022-09-03T03:45:23;95243.38;;;18.92;100.00
13027;BME280;6580;42.680;23.324;2022-09-03T03:47:56;95228.84;;;19.00;100.00
13027;BME280;6580;42.680;23.324;2022-09-03T03:50:23;95240.88;;;18.84;100.00
13027;BME280;6580;42.680;23.324;2022-09-03T03:52:50;95226.97;;;18.81;100.00
13027;BME280;6580;42.680;23.324;2022-09-03T03:55:18;95228.81;;;18.67;100.00
13027;BME280;6580;42.680;23.324;2022-09-03T03:57:46;95239.63;;;18.54;100.00
13027;BME280;6580;42.680;23.324;2022-09-03T04:00:14;95233.19;;;18.75;100.00
13027;BME280;6580;42.680;23.324;2022-09-03T04:02:42;95242.13;;;18.56;100.00
13027;BME280;6580;42.680;23.324;2022-09-03T04:05:09;95240.47;;;18.55;100.00
13027;BME280;6580;42.680;23.324;2022-09-03T04:07:35;95242.53;;;18.59;100.00
13027;BME280;6580;42.680;23.324;2022-09-03T04:10:03;95237.56;;;18.82;100.00
13027;BME280;6580;42.680;23.324;2022-09-03T04:12:32;95238.81;;;18.60;100.00
13027;BME280;6580;42.680;23.324;2022-09-03T04:14:59;95234.22;;;18.48;100.00
13027;BME280;6580;42.680;23.324;2022-09-03T04:17:27;95232.16;;;18.76;100.00
13027;BME280;6580;42.680;23.324;2022-09-03T04:19:53;95233.41;;;18.73;100.00
13027;BME280;6580;42.680;23.324;2022-09-03T04:22:20;95231.75;;;18.66;100.00
13027;BME280;6580;42.680;23.324;2022-09-03T04:24:47;95241.72;;;18.72;100.00
13027;BME280;6580;42.680;23.324;2022-09-03T04:27:18;95243.16;;;18.74;100.00
13027;BME280;6580;42.680;23.324;2022-09-03T04:29:49;95241.72;;;18.78;100.00
13027;BME280;6580;42.680;23.324;2022-09-03T04:32:16;95239.44;;;18.69;100.00
13027;BME280;6580;42.680;23.324;2022-09-03T04:35:00;95244.19;;;18.80;100.00
13027;BME280;6580;42.680;23.324;2022-09-03T04:37:27;95256.25;;;18.97;100.00
13027;BME280;6580;42.680;23.324;2022-09-03T04:39:53;95266.00;;;18.91;100.00
13027;BME280;6580;42.680;23.324;2022-09-03T04:42:21;95252.72;;;18.96;100.00
13027;BME280;6580;42.680;23.324;2022-09-03T04:44:49;95273.06;;;18.86;100.00
13027;BME280;6580;42.680;23.324;2022-09-03T04:47:16;95278.66;;;18.78;100.00
13027;BME280;6580;42.680;23.324;2022-09-03T04:49:43;95276.59;;;18.93;100.00
13027;BME280;6580;42.680;23.324;2022-09-03T04:52:10;95284.31;;;19.15;100.00
13027;BME280;6580;42.680;23.324;2022-09-03T04:54:37;95290.72;;;19.08;100.00
13027;BME280;6580;42.680;23.324;2022-09-03T04:57:04;95295.28;;;19.01;100.00
13027;BME280;6580;42.680;23.324;2022-09-03T04:59:31;95296.56;;;19.18;100.00
13027;BME280;6580;42.680;23.324;2022-09-03T05:01:59;95295.31;;;19.14;100.00
13027;BME280;6580;42.680;23.324;2022-09-03T05:04:27;95291.38;;;19.23;100.00
13027;BME280;6580;42.680;23.324;2022-09-03T05:06:54;95298.41;;;19.11;100.00
13027;BME280;6580;42.680;23.324;2022-09-03T05:09:21;95295.28;;;19.07;100.00
13027;BME280;6580;42.680;23.324;2022-09-03T05:11:48;95299.03;;;19.00;100.00
13027;BME280;6580;42.680;23.324;2022-09-03T05:14:15;95314.78;;;18.77;100.00
13027;BME280;6580;42.680;23.324;2022-09-03T05:16:43;95304.38;;;18.67;100.00
13027;BME280;6580;42.680;23.324;2022-09-03T05:19:12;95300.69;;;18.88;100.00
13027;BME280;6580;42.680;23.324;2022-09-03T05:21:43;95299.63;;;18.76;100.00
13027;BME280;6580;42.680;23.324;2022-09-03T05:24:10;95300.47;;;18.70;100.00
13027;BME280;6580;42.680;23.324;2022-09-03T05:26:39;95303.75;;;18.59;100.00
13027;BME280;6580;42.680;23.324;2022-09-03T05:29:06;95306.47;;;18.72;100.00
13027;BME280;6580;42.680;23.324;2022-09-03T05:31:35;95309.59;;;18.82;100.00
13027;BME280;6580;42.680;23.324;2022-09-03T05:34:04;95315.16;;;18.54;100.00
13027;BME280;6580;42.680;23.324;2022-09-03T05:36:34;95306.41;;;18.46;100.00
13027;BME280;6580;42.680;23.324;2022-09-03T05:39:02;95317.22;;;18.52;100.00
13027;BME280;6580;42.680;23.324;2022-09-03T05:41:29;95324.28;;;18.60;100.00
13027;BME280;6580;42.680;23.324;2022-09-03T05:43:58;95320.56;;;18.61;100.00
13027;BME280;6580;42.680;23.324;2022-09-03T05:46:28;95313.31;;;18.61;100.00
13027;BME280;6580;42.680;23.324;2022-09-03T05:48:58;95318.69;;;18.55;100.00
13027;BME280;6580;42.680;23.324;2022-09-03T05:51:30;95330.34;;;18.75;100.00
13027;BME280;6580;42.680;23.324;2022-09-03T05:53:59;95316.06;;;19.07;100.00
13027;BME280;6580;42.680;23.324;2022-09-03T05:56:27;95319.81;;;18.99;100.00
13027;BME280;6580;42.680;23.324;2022-09-03T05:58:56;95315.00;;;18.95;100.00
13027;BME280;6580;42.680;23.324;2022-09-03T06:01:26;95320.22;;;18.96;100.00
13027;BME280;6580;42.680;23.324;2022-09-03T06:03:54;95314.41;;;18.99;100.00
13027;BME280;6580;42.680;23.324;2022-09-03T06:06:23;95320.06;;;19.17;100.00
13027;BME280;6580;42.680;23.324;2022-09-03T06:08:51;95325.22;;;19.44;100.00
13027;BME280;6580;42.680;23.324;2022-09-03T06:11:21;95326.63;;;19.66;100.00
13027;BME280;6580;42.680;23.324;2022-09-03T06:13:52;95323.97;;;19.41;100.00
13027;BME280;6580;42.680;23.324;2022-09-03T06:16:20;95331.00;;;18.96;100.00
13027;BME280;6580;42.680;23.324;2022-09-03T06:18:47;95329.13;;;18.84;100.00
13027;BME280;6580;42.680;23.324;2022-09-03T06:21:21;95326.84;;;18.94;100.00
13027;BME280;6580;42.680;23.324;2022-09-03T06:23:49;95323.56;;;19.50;100.00
13027;BME280;6580;42.680;23.324;2022-09-03T06:26:17;95313.91;;;19.99;96.94
13027;BME280;6580;42.680;23.324;2022-09-03T06:28:50;95322.78;;;20.63;91.07
13027;BME280;6580;42.680;23.324;2022-09-03T06:31:20;95327.97;;;20.21;92.65
13027;BME280;6580;42.680;23.324;2022-09-03T06:33:47;95326.81;;;20.54;91.72
13027;BME280;6580;42.680;23.324;2022-09-03T06:36:17;95332.47;;;20.40;92.28
13027;BME280;6580;42.680;23.324;2022-09-03T06:38:46;95334.97;;;20.41;91.67
13027;BME280;6580;42.680;23.324;2022-09-03T06:41:15;95332.41;;;19.89;94.37
13027;BME280;6580;42.680;23.324;2022-09-03T06:43:52;95330.13;;;19.86;97.35
13027;BME280;6580;42.680;23.324;2022-09-03T06:46:21;95311.03;;;19.68;97.42
13027;BME280;6580;42.680;23.324;2022-09-03T06:48:49;95321.50;;;20.28;94.73
13027;BME280;6580;42.680;23.324;2022-09-03T06:51:18;95332.63;;;20.51;93.08
13027;BME280;6580;42.680;23.324;2022-09-03T06:53:47;95334.75;;;20.43;92.38
13027;BME280;6580;42.680;23.324;2022-09-03T06:56:20;95334.56;;;20.38;94.66
13027;BME280;6580;42.680;23.324;2022-09-03T06:58:54;95341.06;;;20.67;92.84
13027;BME280;6580;42.680;23.324;2022-09-03T07:01:22;95340.16;;;20.86;91.59
13027;BME280;6580;42.680;23.324;2022-09-03T07:03:52;95342.06;;;20.86;89.65
13027;BME280;6580;42.680;23.324;2022-09-03T07:06:20;95334.34;;;21.14;88.24
13027;BME280;6580;42.680;23.324;2022-09-03T07:08:48;95331.94;;;21.06;87.53
13027;BME280;6580;42.680;23.324;2022-09-03T07:11:16;95339.34;;;21.17;86.85
13027;BME280;6580;42.680;23.324;2022-09-03T07:13:46;95347.28;;;20.81;86.25
13027;BME280;6580;42.680;23.324;2022-09-03T07:16:16;95357.69;;;20.77;87.64
13027;BME280;6580;42.680;23.324;2022-09-03T07:18:44;95349.00;;;20.69;89.94
13027;BME280;6580;42.680;23.324;2022-09-03T07:21:14;95352.16;;;20.59;91.91
13027;BME280;6580;42.680;23.324;2022-09-03T07:23:41;95357.16;;;20.62;89.92
13027;BME280;6580;42.680;23.324;2022-09-03T07:26:11;95353.28;;;20.89;87.49
13027;BME280;6580;42.680;23.324;2022-09-03T07:28:39;95354.06;;;20.96;85.35
13027;BME280;6580;42.680;23.324;2022-09-03T07:31:10;95365.00;;;21.69;83.08
13027;BME280;6580;42.680;23.324;2022-09-03T07:33:39;95363.66;;;22.21;79.83
13027;BME280;6580;42.680;23.324;2022-09-03T07:36:07;95365.25;;;22.64;75.92
13027;BME280;6580;42.680;23.324;2022-09-03T07:38:35;95365.06;;;22.77;71.95
13027;BME280;6580;42.680;23.324;2022-09-03T07:41:04;95369.06;;;23.22;70.10
13027;BME280;6580;42.680;23.324;2022-09-03T07:43:34;95364.63;;;23.79;68.03
13027;BME280;6580;42.680;23.324;2022-09-03T07:46:04;95363.31;;;24.28;65.43
13027;BME280;6580;42.680;23.324;2022-09-03T07:48:33;95361.66;;;23.92;64.63
13027;BME280;6580;42.680;23.324;2022-09-03T07:51:02;95361.34;;;23.07;68.52
13027;BME280;6580;42.680;23.324;2022-09-03T07:53:29;95370.84;;;22.51;72.73
13027;BME280;6580;42.680;23.324;2022-09-03T07:56:01;95361.38;;;23.60;68.63
13027;BME280;6580;42.680;23.324;2022-09-03T07:58:28;95369.97;;;23.97;66.90
13027;BME280;6580;42.680;23.324;2022-09-03T08:00:56;95359.66;;;23.88;67.02
13027;BME280;6580;42.680;23.324;2022-09-03T08:03:23;95364.59;;;24.37;64.43
13027;BME280;6580;42.680;23.324;2022-09-03T08:06:01;95363.38;;;24.78;62.06
13027;BME280;6580;42.680;23.324;2022-09-03T08:08:29;95359.16;;;24.99;59.26
13027;BME280;6580;42.680;23.324;2022-09-03T08:11:03;95373.25;;;24.34;60.75
13027;BME280;6580;42.680;23.324;2022-09-03T08:13:36;95371.94;;;24.59;62.38
13027;BME280;6580;42.680;23.324;2022-09-03T08:16:04;95365.19;;;25.01;59.01
13027;BME280;6580;42.680;23.324;2022-09-03T08:18:34;95368.28;;;23.85;61.70
13027;BME280;6580;42.680;23.324;2022-09-03T08:21:06;95370.13;;;23.62;64.22
13027;BME280;6580;42.680;23.324;2022-09-03T08:23:36;95373.75;;;23.96;64.57
13027;BME280;6580;42.680;23.324;2022-09-03T08:26:03;95371.97;;;24.02;64.08
13027;BME280;6580;42.680;23.324;2022-09-03T08:28:31;95363.44;;;24.21;63.92
13027;BME280;6580;42.680;23.324;2022-09-03T08:31:05;95356.09;;;23.87;61.73
13027;BME280;6580;42.680;23.324;2022-09-03T08:33:39;95363.56;;;24.26;63.39
13027;BME280;6580;42.680;23.324;2022-09-03T08:36:12;95366.97;;;24.45;62.10
13027;BME280;6580;42.680;23.324;2022-09-03T08:38:41;95365.50;;;25.60;57.79
13027;BME280;6580;42.680;23.324;2022-09-03T08:41:13;95358.38;;;26.41;52.84
13027;BME280;6580;42.680;23.324;2022-09-03T08:43:58;95361.84;;;26.15;53.42
13027;BME280;6580;42.680;23.324;2022-09-03T08:46:41;95347.66;;;25.53;54.42
13027;BME280;6580;42.680;23.324;2022-09-03T08:49:12;95355.28;;;25.23;57.10
13027;BME280;6580;42.680;23.324;2022-09-03T08:51:44;95356.31;;;25.33;55.78
13027;BME280;6580;42.680;23.324;2022-09-03T08:54:19;95348.63;;;26.45;53.28
13027;BME280;6580;42.680;23.324;2022-09-03T08:56:49;95356.91;;;24.45;57.69
13027;BME280;6580;42.680;23.324;2022-09-03T08:59:17;95357.84;;;24.39;61.08
13027;BME280;6580;42.680;23.324;2022-09-03T09:01:51;95361.97;;;25.04;59.36
13027;BME280;6580;42.680;23.324;2022-09-03T09:04:31;95357.00;;;25.01;57.09
13027;BME280;6580;42.680;23.324;2022-09-03T09:07:08;95363.56;;;25.72;55.73
13027;BME280;6580;42.680;23.324;2022-09-03T09:09:42;95369.56;;;24.74;56.66
13027;BME280;6580;42.680;23.324;2022-09-03T09:12:19;95367.66;;;25.14;56.79
13027;BME280;6580;42.680;23.324;2022-09-03T09:14:54;95369.91;;;24.43;57.34
13027;BME280;6580;42.680;23.324;2022-09-03T09:17:40;95372.94;;;23.44;64.09
13027;BME280;6580;42.680;23.324;2022-09-03T09:20:16;95365.69;;;24.47;60.70
13027;BME280;6580;42.680;23.324;2022-09-03T09:22:49;95359.09;;;25.10;58.02
13027;BME280;6580;42.680;23.324;2022-09-03T09:25:21;95356.16;;;26.38;53.71
13027;BME280;6580;42.680;23.324;2022-09-03T09:27:54;95360.50;;;26.93;51.53
13027;BME280;6580;42.680;23.324;2022-09-03T09:30:22;95356.09;;;27.14;51.39
13027;BME280;6580;42.680;23.324;2022-09-03T09:32:50;95363.34;;;27.25;48.39
13027;BME280;6580;42.680;23.324;2022-09-03T09:35:17;95367.56;;;27.11;49.92
13027;BME280;6580;42.680;23.324;2022-09-03T09:37:51;95364.06;;;26.02;52.31
13027;BME280;6580;42.680;23.324;2022-09-03T09:40:27;95353.66;;;24.82;56.58
13027;BME280;6580;42.680;23.324;2022-09-03T09:43:06;95361.38;;;25.58;54.94
13027;BME280;6580;42.680;23.324;2022-09-03T09:45:35;95363.84;;;25.59;53.96
13027;BME280;6580;42.680;23.324;2022-09-03T09:48:09;95361.91;;;26.20;53.37
13027;BME280;6580;42.680;23.324;2022-09-03T09:50:39;95360.88;;;26.81;49.33
13027;BME280;6580;42.680;23.324;2022-09-03T09:53:10;95362.13;;;27.11;49.16
13027;BME280;6580;42.680;23.324;2022-09-03T09:55:51;95368.91;;;26.33;50.27
13027;BME280;6580;42.680;23.324;2022-09-03T09:58:20;95368.13;;;27.13;50.39
13027;BME280;6580;42.680;23.324;2022-09-03T10:00:55;95357.66;;;28.93;45.35
13027;BME280;6580;42.680;23.324;2022-09-03T10:03:24;95358.19;;;29.86;42.97
13027;BME280;6580;42.680;23.324;2022-09-03T10:06:01;95368.50;;;29.34;42.45
13027;BME280;6580;42.680;23.324;2022-09-03T10:08:52;95364.06;;;27.94;45.87
13027;BME280;6580;42.680;23.324;2022-09-03T10:11:24;95362.81;;;27.76;47.30
13027;BME280;6580;42.680;23.324;2022-09-03T10:13:53;95362.09;;;28.58;44.75
13027;BME280;6580;42.680;23.324;2022-09-03T10:16:25;95349.13;;;29.66;42.93
13027;BME280;6580;42.680;23.324;2022-09-03T10:19:02;95356.47;;;30.85;39.69
13027;BME280;6580;42.680;23.324;2022-09-03T10:21:40;95358.97;;;30.86;39.94
13027;BME280;6580;42.680;23.324;2022-09-03T10:24:24;95352.91;;;30.89;38.55
13027;BME280;6580;42.680;23.324;2022-09-03T10:26:52;95347.78;;;31.36;38.53
13027;BME280;6580;42.680;23.324;2022-09-03T10:29:22;95348.56;;;30.63;39.01
13027;BME280;6580;42.680;23.324;2022-09-03T10:32:01;95336.69;;;29.38;41.40
13027;BME280;6580;42.680;23.324;2022-09-03T10:34:36;95350.19;;;29.45;40.81
13027;BME280;6580;42.680;23.324;2022-09-03T10:37:13;95344.00;;;28.20;43.64
13027;BME280;6580;42.680;23.324;2022-09-03T10:39:55;95344.59;;;29.25;42.17
13027;BME280;6580;42.680;23.324;2022-09-03T10:42:36;95338.41;;;30.54;39.90
13027;BME280;6580;42.680;23.324;2022-09-03T10:45:15;95335.38;;;29.71;40.39
13027;BME280;6580;42.680;23.324;2022-09-03T10:48:01;95345.72;;;29.39;41.68
13027;BME280;6580;42.680;23.324;2022-09-03T10:50:33;95345.13;;;28.61;41.74
13027;BME280;6580;42.680;23.324;2022-09-03T10:53:12;95352.69;;;28.44;43.89
13027;BME280;6580;42.680;23.324;2022-09-03T10:55:49;95341.84;;;29.20;41.08
13027;BME280;6580;42.680;23.324;2022-09-03T10:58:38;95347.47;;;29.70;40.25
13027;BME280;6580;42.680;23.324;2022-09-03T11:01:17;95317.81;;;30.36;39.58
13027;BME280;6580;42.680;23.324;2022-09-03T11:03:53;95336.75;;;31.41;37.87
13027;BME280;6580;42.680;23.324;2022-09-03T11:06:24;95336.91;;;32.03;36.06
13027;BME280;6580;42.680;23.324;2022-09-03T11:08:59;95344.44;;;31.44;37.97
13027;BME280;6580;42.680;23.324;2022-09-03T11:11:33;95341.28;;;31.12;37.69
13027;BME280;6580;42.680;23.324;2022-09-03T11:14:06;95331.31;;;31.26;37.70
13027;BME280;6580;42.680;23.324;2022-09-03T11:16:37;95342.28;;;30.58;37.97
13027;BME280;6580;42.680;23.324;2022-09-03T11:19:10;95341.47;;;30.12;40.11
13027;BME280;6580;42.680;23.324;2022-09-03T11:21:43;95347.91;;;30.96;38.41
13027;BME280;6580;42.680;23.324;2022-09-03T11:24:13;95342.25;;;31.41;36.64
13027;BME280;6580;42.680;23.324;2022-09-03T11:26:45;95349.19;;;31.33;36.85
13027;BME280;6580;42.680;23.324;2022-09-03T11:29:22;95338.31;;;31.57;37.32
13027;BME280;6580;42.680;23.324;2022-09-03T11:31:57;95346.63;;;32.28;36.47
13027;BME280;6580;42.680;23.324;2022-09-03T11:34:29;95337.94;;;32.45;35.17
13027;BME280;6580;42.680;23.324;2022-09-03T11:37:05;95329.38;;;33.45;34.19
13027;BME280;6580;42.680;23.324;2022-09-03T11:39:35;95328.00;;;33.24;33.62
13027;BME280;6580;42.680;23.324;2022-09-03T11:42:11;95333.72;;;33.04;34.49
13027;BME280;6580;42.680;23.324;2022-09-03T11:44:39;95335.44;;;33.24;34.02
13027;BME280;6580;42.680;23.324;2022-09-03T11:47:15;95327.66;;;33.86;33.02
13027;BME280;6580;42.680;23.324;2022-09-03T11:49:47;95326.72;;;34.14;32.89
13027;BME280;6580;42.680;23.324;2022-09-03T11:52:25;95329.84;;;33.89;32.23
13027;BME280;6580;42.680;23.324;2022-09-03T11:54:56;95335.53;;;33.19;33.61
13027;BME280;6580;42.680;23.324;2022-09-03T11:57:28;95333.41;;;31.92;35.63
13027;BME280;6580;42.680;23.324;2022-09-03T12:00:07;95332.88;;;31.90;35.38
13027;BME280;6580;42.680;23.324;2022-09-03T12:02:36;95336.44;;;30.79;36.98
13027;BME280;6580;42.680;23.324;2022-09-03T12:05:20;95327.03;;;29.21;39.60
13027;BME280;6580;42.680;23.324;2022-09-03T12:08:13;95321.28;;;29.27;40.18
13027;BME280;6580;42.680;23.324;2022-09-03T12:10:50;95314.41;;;30.89;37.01
13027;BME280;6580;42.680;23.324;2022-09-03T12:13:37;95316.13;;;30.40;38.91
13027;BME280;6580;42.680;23.324;2022-09-03T12:16:27;95314.78;;;32.13;36.44
13027;BME280;6580;42.680;23.324;2022-09-03T12:19:25;95312.94;;;32.36;34.40
13027;BME280;6580;42.680;23.324;2022-09-03T12:22:01;95320.28;;;30.53;37.49
13027;BME280;6580;42.680;23.324;2022-09-03T12:24:29;95307.41;;;30.08;39.25
13027;BME280;6580;42.680;23.324;2022-09-03T12:27:02;95309.28;;;30.38;38.87
13027;BME280;6580;42.680;23.324;2022-09-03T12:29:31;95315.09;;;28.03;43.17
13027;BME280;6580;42.680;23.324;2022-09-03T12:32:06;95308.97;;;28.74;42.50
13027;BME280;6580;42.680;23.324;2022-09-03T12:34:33;95311.25;;;27.68;44.26
13027;BME280;6580;42.680;23.324;2022-09-03T12:37:00;95307.69;;;28.03;45.26
13027;BME280;6580;42.680;23.324;2022-09-03T12:39:31;95320.84;;;28.38;44.08
13027;BME280;6580;42.680;23.324;2022-09-03T12:42:00;95311.28;;;28.92;42.17
13027;BME280;6580;42.680;23.324;2022-09-03T12:44:31;95310.03;;;29.24;41.58
13027;BME280;6580;42.680;23.324;2022-09-03T12:47:11;95313.44;;;30.05;39.70
13027;BME280;6580;42.680;23.324;2022-09-03T12:49:42;95306.53;;;30.33;38.85
13027;BME280;6580;42.680;23.324;2022-09-03T12:52:17;95294.72;;;30.52;38.56
13027;BME280;6580;42.680;23.324;2022-09-03T12:54:49;95298.31;;;30.23;39.46
13027;BME280;6580;42.680;23.324;2022-09-03T12:57:22;95287.63;;;29.97;39.68
13027;BME280;6580;42.680;23.324;2022-09-03T12:59:57;95289.19;;;29.28;41.06
13027;BME280;6580;42.680;23.324;2022-09-03T13:02:37;95281.53;;;29.55;40.41
13027;BME280;6580;42.680;23.324;2022-09-03T13:05:13;95290.31;;;29.42;40.06
13027;BME280;6580;42.680;23.324;2022-09-03T13:07:45;95286.75;;;28.70;41.08
13027;BME280;6580;42.680;23.324;2022-09-03T13:10:23;95299.38;;;27.88;43.43
13027;BME280;6580;42.680;23.324;2022-09-03T13:12:56;95296.47;;;27.37;45.06
13027;BME280;6580;42.680;23.324;2022-09-03T13:15:27;95278.28;;;27.26;45.72
13027;BME280;6580;42.680;23.324;2022-09-03T13:18:18;95285.91;;;27.51;44.61
13027;BME280;6580;42.680;23.324;2022-09-03T13:20:55;95287.94;;;26.86;46.37
13027;BME280;6580;42.680;23.324;2022-09-03T13:23:39;95281.13;;;26.88;47.30
13027;BME280;6580;42.680;23.324;2022-09-03T13:26:21;95272.41;;;26.27;48.21